sensor_id;sensor_type;location;lat;lon;timestamp;pressure;altitude;pressure_sealevel;temperature;humidity
21821;BME280;11073;48.586;12.066;2022-09-17T00:01:42;95878.94;;;12.62;69.58
21821;BME280;11073;48.586;12.066;2022-09-17T00:04:11;95881.09;;;12.60;69.39
21821;BME280;11073;48.586;12.066;2022-09-17T00:06:41;95881.66;;;12.62;69.31
21821;BME280;11073;48.586;12.066;2022-09-17T00:09:10;95883.28;;;12.63;69.25
21821;BME280;11073;48.586;12.066;2022-09-17T00:11:40;95881.38;;;12.64;69.19
21821;BME280;11073;48.586;12.066;2022-09-17T00:14:13;95885.97;;;12.58;69.11
21821;BME280;11073;48.586;12.066;2022-09-17T00:16:45;95878.63;;;12.54;69.17
21821;BME280;11073;48.586;12.066;2022-09-17T00:19:15;95871.53;;;12.53;68.99
21821;BME280;11073;48.586;12.066;2022-09-17T00:21:45;95878.31;;;12.50;69.04
21821;BME280;11073;48.586;12.066;2022-09-17T00:24:15;95888.91;;;12.52;68.86
21821;BME280;11073;48.586;12.066;2022-09-17T00:26:44;95894.28;;;12.41;68.66
21821;BME280;11073;48.586;12.066;2022-09-17T00:29:13;95903.00;;;12.43;68.80
21821;BME280;11073;48.586;12.066;2022-09-17T00:31:42;95910.84;;;12.40;68.85
21821;BME280;11073;48.586;12.066;2022-09-17T00:34:11;95900.00;;;12.40;68.73
21821;BME280;11073;48.586;12.066;2022-09-17T00:36:40;95905.94;;;12.32;68.72
21821;BME280;11073;48.586;12.066;2022-09-17T00:39:11;95907.56;;;12.33;68.82
21821;BME280;11073;48.586;12.066;2022-09-17T00:41:42;95904.81;;;12.28;69.16
21821;BME280;11073;48.586;12.066;2022-09-17T00:44:41;95903.44;;;12.25;68.94
21821;BME280;11073;48.586;12.066;2022-09-17T00:47:18;95912.09;;;12.22;68.95
21821;BME280;11073;48.586;12.066;2022-09-17T00:49:49;95897.66;;;12.17;69.04
21821;BME280;11073;48.586;12.066;2022-09-17T00:52:21;95905.47;;;12.08;68.77
21821;BME280;11073;48.586;12.066;2022-09-17T00:54:57;95903.81;;;12.02;69.05
21821;BME280;11073;48.586;12.066;2022-09-17T00:57:28;95899.19;;;11.97;69.21
21821;BME280;11073;48.586;12.066;2022-09-17T00:59:58;95907.34;;;12.02;69.20
21821;BME280;11073;48.586;12.066;2022-09-17T01:02:27;95906.19;;;11.93;68.93
21821;BME280;11073;48.586;12.066;2022-09-17T01:04:56;95903.66;;;11.81;68.71
21821;BME280;11073;48.586;12.066;2022-09-17T01:07:38;95902.88;;;11.86;68.79
21821;BME280;11073;48.586;12.066;2022-09-17T01:10:28;95902.00;;;11.80;68.78
21821;BME280;11073;48.586;12.066;2022-09-17T01:13:08;95906.03;;;11.78;68.58
21821;BME280;11073;48.586;12.066;2022-09-17T01:15:45;95913.88;;;11.74;68.72
21821;BME280;11073;48.586;12.066;2022-09-17T01:18:28;95924.69;;;11.69;68.87
21821;BME280;11073;48.586;12.066;2022-09-17T01:21:31;95916.22;;;11.66;68.65
21821;BME280;11073;48.586;12.066;2022-09-17T01:30:39;95921.31;;;11.57;68.95
21821;BME280;11073;48.586;12.066;2022-09-17T01:33:14;95922.91;;;11.53;68.87
21821;BME280;11073;48.586;12.066;2022-09-17T01:35:49;95938.09;;;11.54;68.99
21821;BME280;11073;48.586;12.066;2022-09-17T01:38:24;95931.53;;;11.50;68.89
21821;BME280;11073;48.586;12.066;2022-09-17T01:40:59;95930.44;;;11.46;68.73
21821;BME280;11073;48.586;12.066;2022-09-17T01:43:36;95913.34;;;11.45;68.98
21821;BME280;11073;48.586;12.066;2022-09-17T01:46:16;95921.22;;;11.47;69.01
21821;BME280;11073;48.586;12.066;2022-09-17T01:48:50;95922.59;;;11.49;68.97
21821;BME280;11073;48.586;12.066;2022-09-17T01:51:25;95920.75;;;11.55;68.89
21821;BME280;11073;48.586;12.066;2022-09-17T01:53:59;95929.41;;;11.52;68.73
21821;BME280;11073;48.586;12.066;2022-09-17T01:56:32;95916.06;;;11.45;68.79
21821;BME280;11073;48.586;12.066;2022-09-17T01:59:08;95913.09;;;11.47;68.39
21821;BME280;11073;48.586;12.066;2022-09-17T02:01:41;95910.53;;;11.35;68.56
21821;BME280;11073;48.586;12.066;2022-09-17T02:04:16;95918.03;;;11.28;68.70
21821;BME280;11073;48.586;12.066;2022-09-17T02:06:52;95913.69;;;11.27;68.75
21821;BME280;11073;48.586;12.066;2022-09-17T02:09:26;95903.13;;;11.25;68.87
21821;BME280;11073;48.586;12.066;2022-09-17T02:12:01;95903.38;;;11.24;68.82
21821;BME280;11073;48.586;12.066;2022-09-17T02:14:34;95903.63;;;11.22;68.50
21821;BME280;11073;48.586;12.066;2022-09-17T02:17:11;95900.69;;;11.24;68.45
21821;BME280;11073;48.586;12.066;2022-09-17T02:19:43;95903.13;;;11.25;68.47
21821;BME280;11073;48.586;12.066;2022-09-17T02:22:18;95895.75;;;11.21;68.45
21821;BME280;11073;48.586;12.066;2022-09-17T02:24:56;95911.72;;;11.17;68.71
21821;BME280;11073;48.586;12.066;2022-09-17T02:27:35;95907.31;;;11.11;68.64
21821;BME280;11073;48.586;12.066;2022-09-17T02:30:05;95907.56;;;11.10;68.64
21821;BME280;11073;48.586;12.066;2022-09-17T02:32:35;95909.69;;;11.08;68.50
21821;BME280;11073;48.586;12.066;2022-09-17T02:35:05;95902.09;;;11.04;68.31
21821;BME280;11073;48.586;12.066;2022-09-17T02:37:34;95905.19;;;10.91;68.45
21821;BME280;11073;48.586;12.066;2022-09-17T02:40:04;95906.19;;;10.85;68.77
21821;BME280;11073;48.586;12.066;2022-09-17T02:42:50;95905.63;;;10.83;68.96
21821;BME280;11073;48.586;12.066;2022-09-17T02:45:32;95898.06;;;10.85;68.73
21821;BME280;11073;48.586;12.066;2022-09-17T02:48:16;95885.50;;;10.74;68.94
21821;BME280;11073;48.586;12.066;2022-09-17T02:51:04;95891.72;;;10.74;68.96
21821;BME280;11073;48.586;12.066;2022-09-17T02:53:38;95884.41;;;10.75;68.98
21821;BME280;11073;48.586;12.066;2022-09-17T02:56:18;95882.28;;;10.77;68.86
21821;BME280;11073;48.586;12.066;2022-09-17T02:58:52;95876.59;;;10.78;69.17
21821;BME280;11073;48.586;12.066;2022-09-17T03:01:32;95878.44;;;10.73;69.22
21821;BME280;11073;48.586;12.066;2022-09-17T03:04:06;95881.91;;;10.68;68.95
21821;BME280;11073;48.586;12.066;2022-09-17T03:06:36;95871.59;;;10.65;69.09
21821;BME280;11073;48.586;12.066;2022-09-17T03:09:05;95865.09;;;10.66;69.51
21821;BME280;11073;48.586;12.066;2022-09-17T03:11:34;95865.66;;;10.68;69.09
21821;BME280;11073;48.586;12.066;2022-09-17T03:14:03;95865.72;;;10.73;69.47
21821;BME280;11073;48.586;12.066;2022-09-17T03:16:31;95860.50;;;10.67;69.28
21821;BME280;11073;48.586;12.066;2022-09-17T03:19:00;95866.47;;;10.69;69.36
21821;BME280;11073;48.586;12.066;2022-09-17T03:21:30;95870.00;;;10.69;69.42
21821;BME280;11073;48.586;12.066;2022-09-17T03:23:59;95864.78;;;10.63;69.36
21821;BME280;11073;48.586;12.066;2022-09-17T03:26:27;95856.91;;;10.61;69.47
21821;BME280;11073;48.586;12.066;2022-09-17T03:28:56;95853.13;;;10.62;69.65
21821;BME280;11073;48.586;12.066;2022-09-17T03:31:25;95855.53;;;10.59;69.56
21821;BME280;11073;48.586;12.066;2022-09-17T03:33:55;95851.84;;;10.65;69.50
21821;BME280;11073;48.586;12.066;2022-09-17T03:36:25;95851.06;;;10.69;69.32
21821;BME280;11073;48.586;12.066;2022-09-17T03:38:55;95855.97;;;10.72;69.17
21821;BME280;11073;48.586;12.066;2022-09-17T03:41:24;95862.25;;;10.78;69.30
21821;BME280;11073;48.586;12.066;2022-09-17T03:43:53;95860.34;;;10.78;68.82
21821;BME280;11073;48.586;12.066;2022-09-17T03:46:22;95868.81;;;10.82;68.77
21821;BME280;11073;48.586;12.066;2022-09-17T03:48:51;95868.28;;;10.85;68.68
21821;BME280;11073;48.586;12.066;2022-09-17T03:51:19;95871.06;;;10.90;68.88
21821;BME280;11073;48.586;12.066;2022-09-17T03:53:48;95868.66;;;10.94;68.74
21821;BME280;11073;48.586;12.066;2022-09-17T03:56:18;95866.19;;;10.92;68.46
21821;BME280;11073;48.586;12.066;2022-09-17T03:58:47;95871.88;;;10.91;68.42
21821;BME280;11073;48.586;12.066;2022-09-17T04:01:16;95869.97;;;10.91;68.17
21821;BME280;11073;48.586;12.066;2022-09-17T04:03:44;95861.03;;;10.91;68.28
21821;BME280;11073;48.586;12.066;2022-09-17T04:06:13;95851.03;;;10.91;68.54
21821;BME280;11073;48.586;12.066;2022-09-17T04:08:42;95853.72;;;10.91;68.13
21821;BME280;11073;48.586;12.066;2022-09-17T04:11:11;95854.53;;;10.92;68.25
21821;BME280;11073;48.586;12.066;2022-09-17T04:13:41;95863.69;;;10.86;68.47
21821;BME280;11073;48.586;12.066;2022-09-17T04:16:10;95862.00;;;10.80;68.34
21821;BME280;11073;48.586;12.066;2022-09-17T04:18:39;95844.81;;;10.69;68.41
21821;BME280;11073;48.586;12.066;2022-09-17T04:21:07;95865.22;;;10.76;68.50
21821;BME280;11073;48.586;12.066;2022-09-17T04:23:36;95863.66;;;10.81;68.51
21821;BME280;11073;48.586;12.066;2022-09-17T04:26:05;95860.94;;;10.81;68.40
21821;BME280;11073;48.586;12.066;2022-09-17T04:28:34;95859.03;;;10.81;68.63
21821;BME280;11073;48.586;12.066;2022-09-17T04:31:04;95862.50;;;10.76;68.89
21821;BME280;11073;48.586;12.066;2022-09-17T04:33:33;95869.50;;;10.72;68.68
21821;BME280;11073;48.586;12.066;2022-09-17T04:36:02;95864.09;;;10.72;68.45
21821;BME280;11073;48.586;12.066;2022-09-17T04:38:31;95852.38;;;10.67;68.58
21821;BME280;11073;48.586;12.066;2022-09-17T04:41:00;95861.06;;;10.69;68.84
21821;BME280;11073;48.586;12.066;2022-09-17T04:43:28;95858.91;;;10.71;68.58
21821;BME280;11073;48.586;12.066;2022-09-17T04:45:57;95861.31;;;10.67;68.52
21821;BME280;11073;48.586;12.066;2022-09-17T04:48:27;95856.47;;;10.69;68.73
21821;BME280;11073;48.586;12.066;2022-09-17T04:50:56;95864.31;;;10.71;68.76
21821;BME280;11073;48.586;12.066;2022-09-17T04:53:25;95871.41;;;10.72;68.68
21821;BME280;11073;48.586;12.066;2022-09-17T04:55:53;95874.66;;;10.74;68.55
21821;BME280;11073;48.586;12.066;2022-09-17T04:58:22;95892.03;;;10.78;68.75
21821;BME280;11073;48.586;12.066;2022-09-17T05:00:50;95896.44;;;10.84;68.32
21821;BME280;11073;48.586;12.066;2022-09-17T05:03:19;95907.81;;;10.86;68.73
21821;BME280;11073;48.586;12.066;2022-09-17T05:05:49;95913.31;;;10.91;68.60
21821;BME280;11073;48.586;12.066;2022-09-17T05:08:18;95924.69;;;10.93;68.64
21821;BME280;11073;48.586;12.066;2022-09-17T05:10:49;95938.31;;;10.98;68.80
21821;BME280;11073;48.586;12.066;2022-09-17T05:13:18;95945.41;;;11.04;68.51
21821;BME280;11073;48.586;12.066;2022-09-17T05:15:46;95955.13;;;11.00;68.52
21821;BME280;11073;48.586;12.066;2022-09-17T05:18:15;95954.28;;;11.00;68.47
21821;BME280;11073;48.586;12.066;2022-09-17T05:20:43;95967.03;;;10.99;68.53
21821;BME280;11073;48.586;12.066;2022-09-17T05:23:14;95983.22;;;10.94;68.43
21821;BME280;11073;48.586;12.066;2022-09-17T05:25:42;95977.47;;;10.91;68.37
21821;BME280;11073;48.586;12.066;2022-09-17T05:28:11;95970.09;;;10.86;68.72
21821;BME280;11073;48.586;12.066;2022-09-17T05:30:39;95969.28;;;10.86;68.49
21821;BME280;11073;48.586;12.066;2022-09-17T05:33:09;95972.50;;;10.83;68.54
21821;BME280;11073;48.586;12.066;2022-09-17T05:35:37;95979.81;;;10.82;68.82
21821;BME280;11073;48.586;12.066;2022-09-17T05:38:06;95982.59;;;10.87;68.70
21821;BME280;11073;48.586;12.066;2022-09-17T05:40:36;95982.63;;;10.92;69.02
21821;BME280;11073;48.586;12.066;2022-09-17T05:43:06;95991.91;;;10.96;69.03
21821;BME280;11073;48.586;12.066;2022-09-17T05:45:36;95996.25;;;10.97;68.96
21821;BME280;11073;48.586;12.066;2022-09-17T05:48:06;96003.22;;;10.93;68.80
21821;BME280;11073;48.586;12.066;2022-09-17T05:50:36;96003.50;;;10.92;68.69
21821;BME280;11073;48.586;12.066;2022-09-17T05:53:06;95996.13;;;10.87;68.67
21821;BME280;11073;48.586;12.066;2022-09-17T05:55:37;96007.53;;;10.89;68.82
21821;BME280;11073;48.586;12.066;2022-09-17T05:58:09;96009.91;;;10.86;68.57
21821;BME280;11073;48.586;12.066;2022-09-17T06:00:39;96026.31;;;10.79;68.38
21821;BME280;11073;48.586;12.066;2022-09-17T06:03:10;96020.69;;;10.81;68.80
21821;BME280;11073;48.586;12.066;2022-09-17T06:05:39;96031.75;;;10.79;68.48
21821;BME280;11073;48.586;12.066;2022-09-17T06:08:07;96022.56;;;10.80;68.61
21821;BME280;11073;48.586;12.066;2022-09-17T06:10:38;96026.41;;;10.84;68.41
21821;BME280;11073;48.586;12.066;2022-09-17T06:13:07;96027.41;;;10.78;68.43
21821;BME280;11073;48.586;12.066;2022-09-17T06:15:36;96017.97;;;10.81;68.40
21821;BME280;11073;48.586;12.066;2022-09-17T06:18:05;96017.22;;;10.85;68.21
21821;BME280;11073;48.586;12.066;2022-09-17T06:20:34;96023.13;;;10.82;68.42
21821;BME280;11073;48.586;12.066;2022-09-17T06:23:02;96023.44;;;10.86;68.40
21821;BME280;11073;48.586;12.066;2022-09-17T06:25:31;96024.78;;;10.83;68.15
21821;BME280;11073;48.586;12.066;2022-09-17T06:28:02;96014.75;;;10.84;68.25
21821;BME280;11073;48.586;12.066;2022-09-17T06:30:31;96015.00;;;10.82;68.18
21821;BME280;11073;48.586;12.066;2022-09-17T06:32:59;96025.84;;;10.82;68.16
21821;BME280;11073;48.586;12.066;2022-09-17T06:35:29;96022.75;;;10.73;67.95
21821;BME280;11073;48.586;12.066;2022-09-17T06:37:57;96019.88;;;10.80;67.82
21821;BME280;11073;48.586;12.066;2022-09-17T06:40:26;96016.41;;;10.85;67.87
21821;BME280;11073;48.586;12.066;2022-09-17T06:42:56;96024.25;;;10.86;67.67
21821;BME280;11073;48.586;12.066;2022-09-17T06:45:26;96019.19;;;10.90;67.53
21821;BME280;11073;48.586;12.066;2022-09-17T06:47:55;96029.69;;;10.86;67.30
21821;BME280;11073;48.586;12.066;2022-09-17T06:50:24;96025.34;;;10.85;67.27
21821;BME280;11073;48.586;12.066;2022-09-17T06:52:53;96037.50;;;10.83;66.77
21821;BME280;11073;48.586;12.066;2022-09-17T06:55:22;96022.88;;;10.84;66.71
21821;BME280;11073;48.586;12.066;2022-09-17T06:57:51;96028.00;;;10.80;66.47
21821;BME280;11073;48.586;12.066;2022-09-17T07:00:19;96023.06;;;10.77;66.35
21821;BME280;11073;48.586;12.066;2022-09-17T07:02:56;96026.41;;;10.84;65.94
21821;BME280;11073;48.586;12.066;2022-09-17T07:05:26;96025.94;;;10.87;65.96
21821;BME280;11073;48.586;12.066;2022-09-17T07:07:55;96024.34;;;10.91;65.68
21821;BME280;11073;48.586;12.066;2022-09-17T07:10:24;96016.22;;;10.91;65.60
21821;BME280;11073;48.586;12.066;2022-09-17T07:12:54;96007.28;;;10.91;65.48
21821;BME280;11073;48.586;12.066;2022-09-17T07:15:22;96008.97;;;10.97;65.69
21821;BME280;11073;48.586;12.066;2022-09-17T07:17:51;95985.16;;;10.99;65.30
21821;BME280;11073;48.586;12.066;2022-09-17T07:20:22;95979.75;;;10.99;65.64
21821;BME280;11073;48.586;12.066;2022-09-17T07:22:54;95983.88;;;11.01;65.53
21821;BME280;11073;48.586;12.066;2022-09-17T07:25:24;95974.03;;;10.95;65.27
21821;BME280;11073;48.586;12.066;2022-09-17T07:27:53;95989.19;;;10.96;64.98
21821;BME280;11073;48.586;12.066;2022-09-17T07:30:23;95986.41;;;11.13;65.21
21821;BME280;11073;48.586;12.066;2022-09-17T07:32:51;95975.94;;;11.22;65.16
21821;BME280;11073;48.586;12.066;2022-09-17T07:35:21;95968.44;;;11.29;64.89
21821;BME280;11073;48.586;12.066;2022-09-17T07:37:50;95981.06;;;11.40;64.94
21821;BME280;11073;48.586;12.066;2022-09-17T07:40:19;95978.00;;;11.37;64.37
21821;BME280;11073;48.586;12.066;2022-09-17T07:42:48;95985.31;;;11.36;64.76
21821;BME280;11073;48.586;12.066;2022-09-17T07:45:17;95986.38;;;11.30;64.50
21821;BME280;11073;48.586;12.066;2022-09-17T07:47:46;95986.56;;;11.23;64.47
21821;BME280;11073;48.586;12.066;2022-09-17T07:50:14;95992.00;;;11.28;64.53
21821;BME280;11073;48.586;12.066;2022-09-17T07:52:46;95988.09;;;11.41;64.29
21821;BME280;11073;48.586;12.066;2022-09-17T07:55:15;95986.75;;;11.44;64.30
21821;BME280;11073;48.586;12.066;2022-09-17T07:57:50;95983.19;;;11.65;64.04
21821;BME280;11073;48.586;12.066;2022-09-17T08:00:18;95991.56;;;11.85;63.67
21821;BME280;11073;48.586;12.066;2022-09-17T08:02:52;95984.56;;;11.90;63.84
21821;BME280;11073;48.586;12.066;2022-09-17T08:05:21;95986.78;;;11.98;63.76
21821;BME280;11073;48.586;12.066;2022-09-17T08:07:51;95984.00;;;12.20;63.45
21821;BME280;11073;48.586;12.066;2022-09-17T08:10:21;95987.78;;;12.19;62.89
21821;BME280;11073;48.586;12.066;2022-09-17T08:12:54;95983.72;;;12.21;63.14
21821;BME280;11073;48.586;12.066;2022-09-17T08:15:24;95975.41;;;12.33;62.85
21821;BME280;11073;48.586;12.066;2022-09-17T08:17:53;96007.94;;;12.28;62.55
21821;BME280;11073;48.586;12.066;2022-09-17T08:20:21;95978.25;;;12.16;62.75
21821;BME280;11073;48.586;12.066;2022-09-17T08:23:00;95992.22;;;11.98;62.61
21821;BME280;11073;48.586;12.066;2022-09-17T08:25:29;95994.28;;;11.85;62.97
21821;BME280;11073;48.586;12.066;2022-09-17T08:27:58;95996.59;;;11.77;63.11
21821;BME280;11073;48.586;12.066;2022-09-17T08:30:26;95998.03;;;11.57;63.39
21821;BME280;11073;48.586;12.066;2022-09-17T08:32:55;96023.50;;;11.56;63.79
21821;BME280;11073;48.586;12.066;2022-09-17T08:35:24;96009.66;;;11.53;63.77
21821;BME280;11073;48.586;12.066;2022-09-17T08:37:54;96023.44;;;11.51;64.27
21821;BME280;11073;48.586;12.066;2022-09-17T08:40:24;96028.22;;;11.44;64.57
21821;BME280;11073;48.586;12.066;2022-09-17T08:42:56;96030.00;;;11.55;64.81
21821;BME280;11073;48.586;12.066;2022-09-17T08:45:28;96031.56;;;11.73;65.19
21821;BME280;11073;48.586;12.066;2022-09-17T08:48:00;96030.78;;;11.78;65.19
21821;BME280;11073;48.586;12.066;2022-09-17T08:50:33;96028.06;;;11.78;65.35
21821;BME280;11073;48.586;12.066;2022-09-17T08:53:13;96030.16;;;11.71;65.57
21821;BME280;11073;48.586;12.066;2022-09-17T08:55:50;96007.97;;;11.47;65.71
21821;BME280;11073;48.586;12.066;2022-09-17T08:58:48;96033.22;;;11.52;66.03
21821;BME280;11073;48.586;12.066;2022-09-17T09:01:26;96037.97;;;11.40;66.67
21821;BME280;11073;48.586;12.066;2022-09-17T09:04:35;96037.59;;;11.31;67.12
21821;BME280;11073;48.586;12.066;2022-09-17T09:07:14;96051.25;;;11.20;67.42
21821;BME280;11073;48.586;12.066;2022-09-17T09:09:48;96064.34;;;11.06;67.52
21821;BME280;11073;48.586;12.066;2022-09-17T09:12:24;96055.03;;;10.97;68.02
21821;BME280;11073;48.586;12.066;2022-09-17T09:14:57;96068.19;;;10.88;68.09
21821;BME280;11073;48.586;12.066;2022-09-17T09:17:34;96064.88;;;10.86;68.38
21821;BME280;11073;48.586;12.066;2022-09-17T09:20:12;96079.06;;;10.93;68.44
21821;BME280;11073;48.586;12.066;2022-09-17T09:22:48;96081.22;;;10.91;68.62
21821;BME280;11073;48.586;12.066;2022-09-17T09:25:21;96070.72;;;10.95;68.47
21821;BME280;11073;48.586;12.066;2022-09-17T09:28:04;96088.69;;;11.01;68.50
21821;BME280;11073;48.586;12.066;2022-09-17T09:30:44;96077.44;;;10.92;68.20
21821;BME280;11073;48.586;12.066;2022-09-17T09:33:23;96088.94;;;10.83;68.12
21821;BME280;11073;48.586;12.066;2022-09-17T09:35:54;96091.16;;;10.69;68.46
21821;BME280;11073;48.586;12.066;2022-09-17T09:38:29;96088.00;;;10.72;68.55
21821;BME280;11073;48.586;12.066;2022-09-17T09:41:06;96098.72;;;10.67;68.53
21821;BME280;11073;48.586;12.066;2022-09-17T09:43:42;96101.25;;;10.57;68.68
21821;BME280;11073;48.586;12.066;2022-09-17T09:46:42;96087.81;;;10.45;68.54
21821;BME280;11073;48.586;12.066;2022-09-17T09:49:24;96087.16;;;10.38;68.57
21821;BME280;11073;48.586;12.066;2022-09-17T09:52:09;96097.19;;;10.37;69.20
21821;BME280;11073;48.586;12.066;2022-09-17T09:54:51;96093.50;;;10.43;69.23
21821;BME280;11073;48.586;12.066;2022-09-17T09:57:32;96091.19;;;10.52;69.18
21821;BME280;11073;48.586;12.066;2022-09-17T10:00:24;96093.13;;;10.57;69.58
21821;BME280;11073;48.586;12.066;2022-09-17T10:02:59;96098.38;;;10.63;69.45
21821;BME280;11073;48.586;12.066;2022-09-17T10:05:30;96105.78;;;10.68;69.70
21821;BME280;11073;48.586;12.066;2022-09-17T10:07:59;96100.09;;;10.69;69.69
21821;BME280;11073;48.586;12.066;2022-09-17T10:10:28;96100.50;;;10.78;69.84
21821;BME280;11073;48.586;12.066;2022-09-17T10:13:05;96111.84;;;10.75;69.28
21821;BME280;11073;48.586;12.066;2022-09-17T10:15:36;96096.03;;;10.67;69.25
21821;BME280;11073;48.586;12.066;2022-09-17T10:18:15;96099.28;;;10.69;69.67
21821;BME280;11073;48.586;12.066;2022-09-17T10:20:52;96088.72;;;10.67;69.79
21821;BME280;11073;48.586;12.066;2022-09-17T10:23:22;96100.69;;;10.88;70.07
21821;BME280;11073;48.586;12.066;2022-09-17T10:25:52;96091.38;;;11.01;70.11
21821;BME280;11073;48.586;12.066;2022-09-17T10:28:28;96098.56;;;11.12;70.14
21821;BME280;11073;48.586;12.066;2022-09-17T10:31:02;96091.44;;;11.06;69.94
21821;BME280;11073;48.586;12.066;2022-09-17T10:33:38;96090.19;;;11.14;69.78
21821;BME280;11073;48.586;12.066;2022-09-17T10:36:11;96095.25;;;11.27;70.23
21821;BME280;11073;48.586;12.066;2022-09-17T10:38:42;96089.38;;;11.35;70.13
21821;BME280;11073;48.586;12.066;2022-09-17T10:41:15;96102.94;;;11.35;70.05
21821;BME280;11073;48.586;12.066;2022-09-17T10:43:45;96089.56;;;11.28;70.12
21821;BME280;11073;48.586;12.066;2022-09-17T10:46:17;96084.09;;;11.23;70.29
21821;BME280;11073;48.586;12.066;2022-09-17T10:49:04;96086.00;;;11.23;70.39
21821;BME280;11073;48.586;12.066;2022-09-17T10:51:37;96085.22;;;11.27;70.53
21821;BME280;11073;48.586;12.066;2022-09-17T10:56:53;96096.06;;;11.27;70.40
21821;BME280;11073;48.586;12.066;2022-09-17T10:59:42;96087.03;;;11.22;70.53
21821;BME280;11073;48.586;12.066;2022-09-17T11:02:34;96094.44;;;11.26;70.72
21821;BME280;11073;48.586;12.066;2022-09-17T11:05:21;96088.38;;;11.41;70.65
21821;BME280;11073;48.586;12.066;2022-09-17T11:07:59;96085.72;;;11.68;70.88
21821;BME280;11073;48.586;12.066;2022-09-17T11:10:34;96077.00;;;12.15;71.08
21821;BME280;11073;48.586;12.066;2022-09-17T11:13:18;96078.75;;;12.58;70.45
21821;BME280;11073;48.586;12.066;2022-09-17T11:16:02;96082.19;;;12.49;69.28
21821;BME280;11073;48.586;12.066;2022-09-17T11:18:38;96085.06;;;12.37;69.00
21821;BME280;11073;48.586;12.066;2022-09-17T11:21:27;96077.47;;;12.07;68.74
21821;BME280;11073;48.586;12.066;2022-09-17T11:24:23;96082.63;;;12.03;69.23
21821;BME280;11073;48.586;12.066;2022-09-17T11:27:04;96065.53;;;12.03;69.67
21821;BME280;11073;48.586;12.066;2022-09-17T11:29:46;96075.78;;;12.01;69.57
21821;BME280;11073;48.586;12.066;2022-09-17T11:32:35;96069.75;;;11.94;69.27
21821;BME280;11073;48.586;12.066;2022-09-17T11:35:08;96065.09;;;11.89;69.48
21821;BME280;11073;48.586;12.066;2022-09-17T11:37:41;96071.84;;;11.86;69.43
21821;BME280;11073;48.586;12.066;2022-09-17T11:40:17;96063.47;;;11.88;69.18
21821;BME280;11073;48.586;12.066;2022-09-17T11:42:53;96060.28;;;11.96;69.84
21821;BME280;11073;48.586;12.066;2022-09-17T11:45:27;96062.75;;;11.98;69.05
21821;BME280;11073;48.586;12.066;2022-09-17T11:48:02;96053.31;;;12.05;68.96
21821;BME280;11073;48.586;12.066;2022-09-17T11:50:38;96055.63;;;12.19;69.01
21821;BME280;11073;48.586;12.066;2022-09-17T11:53:14;96058.41;;;12.29;68.88
21821;BME280;11073;48.586;12.066;2022-09-17T11:55:49;96040.53;;;12.33;68.70
21821;BME280;11073;48.586;12.066;2022-09-17T11:58:25;96037.78;;;12.28;68.24
21821;BME280;11073;48.586;12.066;2022-09-17T12:01:00;96043.53;;;12.31;68.15
21821;BME280;11073;48.586;12.066;2022-09-17T12:03:33;96048.75;;;12.43;67.66
21821;BME280;11073;48.586;12.066;2022-09-17T12:06:08;96035.84;;;12.55;67.54
21821;BME280;11073;48.586;12.066;2022-09-17T12:08:44;96042.06;;;12.56;67.29
21821;BME280;11073;48.586;12.066;2022-09-17T12:11:19;96032.81;;;12.52;66.74
21821;BME280;11073;48.586;12.066;2022-09-17T12:13:51;96027.38;;;12.52;66.50
21821;BME280;11073;48.586;12.066;2022-09-17T12:16:25;96024.31;;;12.43;66.31
21821;BME280;11073;48.586;12.066;2022-09-17T12:18:58;96021.00;;;12.36;66.12
21821;BME280;11073;48.586;12.066;2022-09-17T12:21:33;96017.66;;;12.24;65.80
21821;BME280;11073;48.586;12.066;2022-09-17T12:24:11;96022.44;;;12.11;65.68
21821;BME280;11073;48.586;12.066;2022-09-17T12:27:05;96022.41;;;12.06;66.13
21821;BME280;11073;48.586;12.066;2022-09-17T12:30:00;96023.47;;;12.37;66.26
21821;BME280;11073;48.586;12.066;2022-09-17T12:35:46;96017.91;;;12.96;65.38
21821;BME280;11073;48.586;12.066;2022-09-17T12:38:52;96015.72;;;12.98;64.76
21821;BME280;11073;48.586;12.066;2022-09-17T12:41:38;96026.84;;;12.92;64.65
21821;BME280;11073;48.586;12.066;2022-09-17T12:44:21;96019.47;;;12.87;63.94
21821;BME280;11073;48.586;12.066;2022-09-17T12:47:07;96026.44;;;12.73;63.68
21821;BME280;11073;48.586;12.066;2022-09-17T12:49:51;96023.94;;;12.66;63.67
21821;BME280;11073;48.586;12.066;2022-09-17T12:52:35;96026.06;;;12.59;63.32
21821;BME280;11073;48.586;12.066;2022-09-17T12:58:27;96043.94;;;12.50;63.03
21821;BME280;11073;48.586;12.066;2022-09-17T13:01:02;96027.84;;;12.38;62.84
21821;BME280;11073;48.586;12.066;2022-09-17T13:03:35;96028.94;;;12.42;63.10
21821;BME280;11073;48.586;12.066;2022-09-17T13:06:35;96017.91;;;12.54;62.91
21821;BME280;11073;48.586;12.066;2022-09-17T13:09:33;96013.72;;;12.79;62.35
21821;BME280;11073;48.586;12.066;2022-09-17T13:12:13;96007.59;;;12.98;61.82
21821;BME280;11073;48.586;12.066;2022-09-17T13:17:50;96004.88;;;13.66;60.99
21821;BME280;11073;48.586;12.066;2022-09-17T13:20:50;96022.91;;;14.28;60.36
21821;BME280;11073;48.586;12.066;2022-09-17T13:23:31;96000.81;;;14.91;59.85
21821;BME280;11073;48.586;12.066;2022-09-17T13:26:01;95994.41;;;15.31;59.04
21821;BME280;11073;48.586;12.066;2022-09-17T13:28:37;95999.63;;;15.87;58.44
21821;BME280;11073;48.586;12.066;2022-09-17T13:31:20;96005.34;;;16.25;57.40
21821;BME280;11073;48.586;12.066;2022-09-17T13:33:54;95994.78;;;16.81;56.94
21821;BME280;11073;48.586;12.066;2022-09-17T13:36:42;95995.00;;;17.09;55.27
21821;BME280;11073;48.586;12.066;2022-09-17T13:39:41;95991.63;;;16.93;54.91
21821;BME280;11073;48.586;12.066;2022-09-17T13:42:15;95991.13;;;16.91;54.86
21821;BME280;11073;48.586;12.066;2022-09-17T13:44:48;95989.25;;;16.87;54.26